Time;durP1;ratioP1;P1;durP2;ratioP2;P2;SDS_P1;SDS_P2;PMS_P1;PMS_P2;Temp;Humidity;BMP_temperature;BMP_pressure;BME280_temperature;BME280_humidity;BME280_pressure;Samples;Min_cycle;Max_cycle;Signal;HPM_P1;HPM_P2
2023/08/15 00:00:37;;;;;;;9.65;7.47;;;19.10;99.90;;;;;;5077794;28;20107;-84
2023/08/15 00:03:03;;;;;;;9.82;7.32;;;19.10;99.90;;;;;;5076848;28;20119;-83
2023/08/15 00:05:29;;;;;;;20.90;8.80;;;19.10;99.90;;;;;;5076461;28;20066;-84
2023/08/15 00:07:55;;;;;;;13.48;7.65;;;19.10;99.90;;;;;;5093893;28;20031;-85
2023/08/15 00:10:21;;;;;;;8.75;7.40;;;19.10;99.90;;;;;;5094325;28;20070;-84
2023/08/15 00:12:47;;;;;;;11.15;7.60;;;19.00;99.90;;;;;;5101454;28;20078;-83
2023/08/15 00:15:13;;;;;;;9.15;8.00;;;19.00;99.90;;;;;;5076292;28;20407;-82
2023/08/15 00:17:39;;;;;;;12.02;7.97;;;19.00;99.90;;;;;;5094207;28;20104;-84
2023/08/15 00:20:06;;;;;;;13.98;7.68;;;19.00;99.90;;;;;;5098836;28;20031;-85
2023/08/15 00:22:32;;;;;;;11.90;7.85;;;19.00;99.90;;;;;;5098597;28;20036;-83
2023/08/15 00:24:58;;;;;;;12.85;7.90;;;18.90;99.90;;;;;;5081900;28;20032;-84
2023/08/15 00:27:24;;;;;;;14.73;8.65;;;18.90;99.90;;;;;;5104632;28;20430;-83
2023/08/15 00:29:49;;;;;;;11.85;8.18;;;18.90;99.90;;;;;;5076193;28;20028;-84
2023/08/15 00:32:15;;;;;;;9.32;8.32;;;18.90;99.90;;;;;;5076359;28;20016;-83
2023/08/15 00:34:41;;;;;;;8.80;7.25;;;18.80;99.90;;;;;;5097393;28;20469;-83
2023/08/15 00:37:07;;;;;;;11.07;8.30;;;18.80;99.90;;;;;;5096903;28;20016;-84
2023/08/15 00:39:33;;;;;;;14.23;8.35;;;18.80;99.90;;;;;;5105864;28;20020;-84
2023/08/15 00:41:59;;;;;;;11.40;8.30;;;18.80;99.90;;;;;;5094498;28;20040;-84
2023/08/15 00:44:24;;;;;;;10.65;7.93;;;18.80;99.90;;;;;;5084488;28;20059;-85
2023/08/15 00:46:51;;;;;;;9.50;7.68;;;18.70;99.90;;;;;;5107062;28;20499;-84
2023/08/15 00:49:17;;;;;;;14.02;7.50;;;18.70;99.90;;;;;;5114731;28;20507;-83
2023/08/15 00:51:44;;;;;;;14.20;8.38;;;18.70;99.90;;;;;;5097349;28;20423;-84
2023/08/15 00:54:10;;;;;;;9.25;8.10;;;18.70;99.90;;;;;;5114505;28;20085;-83
2023/08/15 00:56:35;;;;;;;11.15;7.93;;;18.70;99.90;;;;;;5102118;28;20023;-83
2023/08/15 00:59:02;;;;;;;10.90;7.30;;;18.70;99.90;;;;;;5116210;28;20165;-85
2023/08/15 01:01:29;;;;;;;10.70;8.40;;;18.70;99.90;;;;;;5114279;28;20036;-82
2023/08/15 01:03:55;;;;;;;14.95;8.90;;;18.70;99.90;;;;;;5113049;28;20047;-83
2023/08/15 01:06:21;;;;;;;12.20;8.63;;;18.60;99.90;;;;;;5110210;28;20032;-83
2023/08/15 01:08:48;;;;;;;13.38;8.02;;;18.70;99.90;;;;;;5105304;28;20040;-84
2023/08/15 01:11:14;;;;;;;14.40;8.85;;;18.60;99.90;;;;;;5104369;28;20020;-82
2023/08/15 01:13:51;;;;;;;13.02;8.20;;;18.60;99.90;;;;;;5105401;28;20055;-83
2023/08/15 01:16:28;;;;;;;11.98;8.45;;;18.60;99.90;;;;;;5089856;28;20451;-84
2023/08/15 01:19:15;;;;;;;10.65;8.35;;;18.60;99.90;;;;;;5094262;28;20044;-83
2023/08/15 01:21:43;;;;;;;;;;;18.60;99.90;;;;;;5112255;28;20024;-82
2023/08/15 01:24:09;;;;;;;12.18;8.90;;;18.50;99.90;;;;;;5076909;28;19916;-84
2023/08/15 01:26:35;;;;;;;12.70;8.63;;;18.50;99.90;;;;;;5092028;28;20087;-83
2023/08/15 01:29:01;;;;;;;12.55;8.85;;;18.50;99.90;;;;;;5091459;28;20035;-83
2023/08/15 01:31:50;;;;;;;10.48;8.65;;;18.50;99.90;;;;;;5095733;28;20018;-84
2023/08/15 01:34:23;;;;;;;16.10;9.18;;;18.50;99.90;;;;;;5097565;28;20473;-83
2023/08/15 01:36:57;;;;;;;14.57;8.88;;;18.50;99.90;;;;;;5075428;28;20413;-84
2023/08/15 01:39:28;;;;;;;11.25;8.43;;;18.40;99.90;;;;;;5095339;28;20024;-81
2023/08/15 01:42:00;;;;;;;11.23;8.23;;;18.40;99.90;;;;;;5094969;28;20039;-81
2023/08/15 01:44:28;;;;;;;12.80;8.80;;;18.40;99.90;;;;;;5102188;28;20027;-83
2023/08/15 01:46:54;;;;;;;10.00;9.00;;;18.40;99.90;;;;;;5096188;28;20024;-85
2023/08/15 01:49:20;;;;;;;10.95;8.13;;;18.40;99.90;;;;;;5108660;28;20428;-83
2023/08/15 01:51:46;;;;;;;9.88;8.20;;;18.40;99.90;;;;;;5108005;28;20027;-83
2023/08/15 01:54:12;;;;;;;14.45;8.43;;;18.40;99.90;;;;;;5109808;28;20012;-82
2023/08/15 01:56:38;;;;;;;11.75;8.75;;;18.40;99.90;;;;;;5076628;28;20032;-82
2023/08/15 01:59:04;;;;;;;14.48;8.90;;;18.40;99.90;;;;;;5075011;28;20020;-83
2023/08/15 02:01:29;;;;;;;11.20;8.73;;;18.40;99.90;;;;;;5094085;28;20047;-82
2023/08/15 02:03:55;;;;;;;13.05;8.98;;;18.40;99.90;;;;;;5110298;28;20047;-82
2023/08/15 02:06:21;;;;;;;10.85;9.32;;;18.40;99.90;;;;;;5098995;28;20047;-84
2023/08/15 02:08:47;;;;;;;10.93;8.65;;;18.40;99.90;;;;;;5082728;28;20047;-83
2023/08/15 02:11:13;;;;;;;9.30;8.40;;;18.40;99.90;;;;;;5077014;28;20466;-82
2023/08/15 02:13:39;;;;;;;11.52;9.10;;;18.30;99.90;;;;;;5084061;28;20111;-82
2023/08/15 02:16:05;;;;;;;11.88;8.85;;;18.30;99.90;;;;;;5093402;28;20094;-81
2023/08/15 02:18:31;;;;;;;12.75;9.20;;;18.30;99.90;;;;;;5082520;28;20099;-84
2023/08/15 02:20:57;;;;;;;9.50;7.50;;;18.40;99.90;;;;;;5092556;28;20039;-84
2023/08/15 02:23:23;;;;;;;9.38;8.45;;;18.40;99.90;;;;;;5080201;28;20024;-83
2023/08/15 02:25:49;;;;;;;14.02;9.25;;;18.50;99.90;;;;;;5087960;28;20131;-83
2023/08/15 02:28:15;;;;;;;12.98;8.88;;;18.50;99.90;;;;;;5082661;28;20044;-83
2023/08/15 02:30:41;;;;;;;14.63;8.95;;;18.50;99.90;;;;;;5078767;28;20099;-82
2023/08/15 02:33:07;;;;;;;13.73;8.43;;;18.50;99.90;;;;;;5079530;28;20115;-83
2023/08/15 02:35:34;;;;;;;16.02;9.90;;;18.50;99.90;;;;;;5071326;28;20020;-82
2023/08/15 02:38:00;;;;;;;12.75;8.48;;;18.60;99.90;;;;;;5081985;28;20020;-83
2023/08/15 02:40:29;;;;;;;12.88;9.32;;;18.60;99.90;;;;;;5090160;28;20455;-83
2023/08/15 02:42:54;;;;;;;9.90;8.90;;;18.70;99.90;;;;;;5082529;28;20037;-82
2023/08/15 02:45:21;;;;;;;15.77;9.20;;;18.70;99.90;;;;;;5093660;28;20052;-81
2023/08/15 02:47:47;;;;;;;12.77;8.93;;;18.80;99.90;;;;;;5083393;28;20106;-83
2023/08/15 02:50:14;;;;;;;9.02;8.13;;;18.80;99.90;;;;;;5096904;28;20017;-81
2023/08/15 02:52:40;;;;;;;13.35;8.52;;;18.80;99.90;;;;;;5086927;28;20027;-83
2023/08/15 02:55:06;;;;;;;11.73;8.63;;;18.90;99.90;;;;;;5091394;28;20033;-84
2023/08/15 02:57:32;;;;;;;11.55;9.57;;;19.00;99.90;;;;;;5089059;28;20081;-84
2023/08/15 02:59:58;;;;;;;13.63;9.10;;;19.00;99.90;;;;;;5110735;28;20073;-84
2023/08/15 03:02:24;;;;;;;15.05;8.50;;;19.00;99.90;;;;;;5102662;28;20040;-83
2023/08/15 03:04:49;;;;;;;12.40;8.85;;;19.10;99.90;;;;;;5089122;28;20024;-84
2023/08/15 03:07:15;;;;;;;18.35;9.13;;;19.10;99.90;;;;;;5076146;28;20028;-84
2023/08/15 03:09:41;;;;;;;14.13;9.13;;;19.20;99.90;;;;;;5074714;28;20048;-83
2023/08/15 03:12:07;;;;;;;11.23;8.23;;;19.20;99.90;;;;;;5080583;28;20033;-85
2023/08/15 03:14:33;;;;;;;10.57;7.88;;;19.30;99.90;;;;;;5089507;28;20031;-85
2023/08/15 03:17:01;;;;;;;13.00;8.85;;;19.40;99.90;;;;;;5100154;28;20021;-84
2023/08/15 03:19:27;;;;;;;11.65;9.38;;;19.40;99.90;;;;;;5097406;28;20031;-84
2023/08/15 03:21:53;;;;;;;12.20;9.13;;;19.50;99.90;;;;;;5084986;28;20024;-85
2023/08/15 03:24:19;;;;;;;13.73;9.40;;;19.60;99.90;;;;;;5080966;28;20088;-85
2023/08/15 03:26:45;;;;;;;12.38;8.20;;;19.70;99.90;;;;;;5080942;28;20024;-83
2023/08/15 03:29:10;;;;;;;10.88;8.63;;;19.70;99.90;;;;;;5076770;28;20024;-85
2023/08/15 03:31:37;;;;;;;11.70;9.07;;;19.80;99.90;;;;;;5088329;28;20075;-86
2023/08/15 03:34:03;;;;;;;13.52;8.95;;;19.80;99.90;;;;;;5096335;28;20028;-85
2023/08/15 03:36:29;;;;;;;10.85;8.80;;;19.90;99.90;;;;;;5102938;28;20385;-85
2023/08/15 03:38:54;;;;;;;11.18;9.07;;;20.00;99.90;;;;;;5094421;28;20504;-85
2023/08/15 03:41:21;;;;;;;14.43;9.20;;;20.00;99.90;;;;;;5075784;28;20090;-83
2023/08/15 03:43:47;;;;;;;17.90;9.38;;;20.10;99.90;;;;;;5088767;28;20061;-84
2023/08/15 03:46:13;;;;;;;10.50;7.97;;;20.20;99.90;;;;;;5075614;28;20456;-86
2023/08/15 03:48:40;;;;;;;19.75;9.30;;;20.30;99.90;;;;;;5089589;28;20024;-85
2023/08/15 03:51:06;;;;;;;10.88;8.98;;;20.30;99.90;;;;;;5097781;28;20023;-84
2023/08/15 03:53:32;;;;;;;13.55;9.27;;;20.50;99.90;;;;;;5098564;28;20028;-85
2023/08/15 03:55:58;;;;;;;10.07;7.45;;;20.60;99.90;;;;;;5101693;28;20051;-84
2023/08/15 03:58:24;;;;;;;13.30;8.50;;;20.60;99.90;;;;;;5093292;28;20035;-84
2023/08/15 04:00:50;;;;;;;11.00;7.55;;;20.70;99.50;;;;;;5084364;28;20035;-84
2023/08/15 04:03:17;;;;;;;9.30;8.27;;;20.80;99.40;;;;;;5093746;28;20401;-84
2023/08/15 04:05:47;;;;;;;10.20;7.05;;;20.80;98.90;;;;;;5079971;28;20021;-83
2023/08/15 04:08:14;;;;;;;11.52;7.95;;;20.90;98.70;;;;;;5094150;28;20024;-83
2023/08/15 04:10:40;;;;;;;11.45;7.68;;;20.90;98.50;;;;;;5079942;28;20101;-82
2023/08/15 04:13:07;;;;;;;10.43;8.43;;;21.00;98.40;;;;;;5072772;28;20033;-85
2023/08/15 04:15:35;;;;;;;12.07;8.20;;;21.10;98.20;;;;;;5077225;28;20055;-83
2023/08/15 04:18:02;;;;;;;13.45;8.40;;;21.20;98.10;;;;;;5077927;28;20134;-84
2023/08/15 04:20:27;;;;;;;13.52;8.45;;;21.20;97.90;;;;;;5086105;28;20021;-83
2023/08/15 04:22:53;;;;;;;8.80;7.38;;;21.30;97.80;;;;;;5074378;28;20111;-83
2023/08/15 04:25:19;;;;;;;14.52;8.15;;;21.40;97.70;;;;;;5074766;28;20054;-84
2023/08/15 04:27:45;;;;;;;17.05;8.05;;;21.50;97.70;;;;;;5073586;28;20458;-81
2023/08/15 04:30:11;;;;;;;13.57;8.38;;;21.60;97.70;;;;;;5088271;28;20077;-83
2023/08/15 04:32:37;;;;;;;11.55;7.97;;;21.60;97.70;;;;;;5094464;28;20377;-83
2023/08/15 04:35:03;;;;;;;11.45;7.88;;;21.70;97.50;;;;;;5087104;28;20032;-83
2023/08/15 04:37:29;;;;;;;12.18;8.55;;;21.80;97.40;;;;;;5081103;28;20020;-84
2023/08/15 04:39:55;;;;;;;18.73;8.82;;;21.80;97.30;;;;;;5099434;28;20028;-84
2023/08/15 04:42:21;;;;;;;9.70;7.03;;;21.90;97.40;;;;;;5079196;28;20439;-84
2023/08/15 04:44:46;;;;;;;8.15;6.97;;;22.00;96.60;;;;;;5085516;28;20489;-83
2023/08/15 04:47:12;;;;;;;9.23;7.70;;;22.20;97.10;;;;;;5081058;28;20028;-83
2023/08/15 04:49:38;;;;;;;12.63;7.63;;;22.50;96.70;;;;;;5096831;28;20088;-83
2023/08/15 04:52:05;;;;;;;13.43;6.70;;;23.10;95.80;;;;;;5079438;28;20052;-83
2023/08/15 04:54:31;;;;;;;9.47;6.93;;;23.90;94.20;;;;;;5074513;28;20044;-82
2023/08/15 04:56:56;;;;;;;13.50;7.47;;;24.60;92.60;;;;;;5075883;28;20040;-81
2023/08/15 04:59:22;;;;;;;9.60;6.80;;;25.40;91.00;;;;;;5091889;28;20028;-82
2023/08/15 05:01:48;;;;;;;8.77;6.38;;;25.90;89.00;;;;;;5078607;28;20041;-84
2023/08/15 05:04:14;;;;;;;12.05;6.82;;;26.50;86.60;;;;;;5073659;28;20518;-83
2023/08/15 05:06:40;;;;;;;10.07;6.18;;;27.00;84.20;;;;;;5072769;28;20489;-84
2023/08/15 05:09:06;;;;;;;9.75;5.45;;;27.40;82.30;;;;;;5087197;28;20044;-83
2023/08/15 05:11:32;;;;;;;12.10;6.18;;;28.10;80.00;;;;;;5089437;28;20027;-85
2023/08/15 05:14:01;;;;;;;10.70;6.07;;;28.80;78.00;;;;;;5094952;28;20023;-84
2023/08/15 05:16:26;;;;;;;8.05;5.78;;;29.10;74.50;;;;;;5092302;28;20016;-83
2023/08/15 05:18:52;;;;;;;7.25;5.25;;;29.60;72.60;;;;;;5095599;28;20069;-84
2023/08/15 05:21:18;;;;;;;10.27;5.22;;;29.80;71.20;;;;;;5100081;28;20053;-84
2023/08/15 05:23:44;;;;;;;9.65;5.72;;;30.30;69.50;;;;;;5111111;28;20035;-84
2023/08/15 05:26:10;;;;;;;7.80;4.50;;;30.50;68.10;;;;;;5108436;28;20057;-84
2023/08/15 05:28:36;;;;;;;6.63;4.37;;;30.80;66.50;;;;;;5106936;28;20069;-86
2023/08/15 05:31:02;;;;;;;6.20;4.17;;;31.70;64.70;;;;;;5096974;28;20342;-86
2023/08/15 05:33:28;;;;;;;5.93;4.78;;;31.70;64.10;;;;;;5095425;28;20060;-84
2023/08/15 05:35:54;;;;;;;13.53;5.97;;;32.40;62.60;;;;;;5094564;28;20016;-85
2023/08/15 05:38:21;;;;;;;10.77;5.65;;;32.90;60.70;;;;;;5095332;28;20056;-85
2023/08/15 05:40:47;;;;;;;9.63;5.88;;;33.00;59.90;;;;;;5091058;28;20024;-86
2023/08/15 05:43:13;;;;;;;6.40;4.13;;;33.30;59.00;;;;;;5093058;28;20032;-85
2023/08/15 05:45:39;;;;;;;10.07;4.67;;;33.80;57.20;;;;;;5096596;28;20478;-84
2023/08/15 05:48:05;;;;;;;9.03;5.13;;;34.20;56.30;;;;;;5100707;28;20028;-83
2023/08/15 05:50:31;;;;;;;9.20;4.85;;;34.90;54.60;;;;;;5099132;28;20408;-84
2023/08/15 05:52:57;;;;;;;6.30;4.50;;;34.80;55.00;;;;;;5093418;28;20103;-84
2023/08/15 05:55:32;;;;;;;9.33;4.40;;;35.10;54.10;;;;;;5103264;28;20268;-82
2023/08/15 05:57:58;;;;;;;11.98;4.82;;;35.30;53.90;;;;;;5081966;28;20356;-84
2023/08/15 06:00:24;;;;;;;6.50;4.33;;;35.60;52.10;;;;;;5096706;28;20434;-86
2023/08/15 06:02:50;;;;;;;10.07;4.67;;;35.90;50.90;;;;;;5095106;28;20075;-84
2023/08/15 06:05:17;;;;;;;7.27;4.53;;;35.90;50.10;;;;;;5094471;28;20276;-84
2023/08/15 06:07:42;;;;;;;;;;;35.70;50.10;;;;;;5098373;28;20116;-82
2023/08/15 06:10:08;;;;;;;8.32;4.40;;;35.60;52.40;;;;;;5094124;28;19924;-85
2023/08/15 06:12:34;;;;;;;8.60;4.15;;;35.80;50.30;;;;;;5095700;28;20171;-88
2023/08/15 06:15:00;;;;;;;7.63;4.27;;;36.10;49.50;;;;;;5099187;28;20060;-86
2023/08/15 06:17:26;;;;;;;6.95;4.25;;;36.40;49.50;;;;;;5105979;28;20319;-87
2023/08/15 06:19:53;;;;;;;7.05;4.32;;;36.60;48.50;;;;;;5100563;28;20017;-88
2023/08/15 06:22:19;;;;;;;6.72;4.00;;;36.50;48.30;;;;;;5100595;28;20043;-86
2023/08/15 06:24:45;;;;;;;5.03;3.23;;;36.60;48.20;;;;;;5102420;28;20027;-86
2023/08/15 06:27:11;;;;;;;6.30;4.22;;;37.00;48.00;;;;;;5102037;28;20261;-87
2023/08/15 06:29:37;;;;;;;9.52;3.97;;;37.60;47.20;;;;;;5087801;28;20104;-86
2023/08/15 06:32:03;;;;;;;7.88;4.57;;;38.20;46.70;;;;;;5094567;28;20029;-86
2023/08/15 06:34:29;;;;;;;7.60;4.85;;;38.30;45.80;;;;;;5091205;28;20370;-87
2023/08/15 06:36:55;;;;;;;9.45;3.65;;;38.40;45.60;;;;;;5099528;28;20119;-88
2023/08/15 06:39:21;;;;;;;8.05;4.28;;;38.50;45.30;;;;;;5087409;28;20040;-87
2023/08/15 06:41:47;;;;;;;8.52;3.67;;;;;;;;;;5100576;28;20040;-86
2023/08/15 06:44:13;;;;;;;;;;;39.20;45.10;;;;;;5091962;28;20021;-86
2023/08/15 06:46:39;;;;;;;6.03;3.03;;;39.40;46.00;;;;;;5092951;28;19904;-87
2023/08/15 06:49:04;;;;;;;3.70;3.30;;;39.30;43.40;;;;;;5097655;28;20049;-88
2023/08/15 06:51:31;;;;;;;7.88;4.30;;;;;;;;;;5100170;28;20024;-90
2023/08/15 06:53:57;;;;;;;6.85;2.92;;;;;;;;;;5091438;28;20021;-86
2023/08/15 06:56:23;;;;;;;;;;;;;;;;;;5093467;28;20024;-86
2023/08/15 06:58:49;;;;;;;4.07;2.88;;;39.60;43.60;;;;;;5085947;28;19915;-88
2023/08/15 07:01:15;;;;;;;4.43;2.95;;;41.10;40.80;;;;;;5097844;28;20027;-89
2023/08/15 07:03:40;;;;;;;;;;;41.30;40.20;;;;;;5098721;28;20031;-88
2023/08/15 07:06:06;;;;;;;5.35;3.58;;;41.30;42.30;;;;;;5097857;28;19911;-86
2023/08/15 07:08:32;;;;;;;6.93;3.30;;;41.10;40.30;;;;;;5089189;28;20331;-86
2023/08/15 07:10:59;;;;;;;5.88;3.42;;;40.90;40.60;;;;;;5093171;28;20502;-87
2023/08/15 07:13:25;;;;;;;5.65;3.33;;;40.70;40.60;;;;;;5105303;28;20023;-87
2023/08/15 07:15:57;;;;;;;5.03;2.90;;;40.40;41.00;;;;;;5117499;28;20024;-86
2023/08/15 07:18:24;;;;;;;5.18;3.33;;;40.20;41.00;;;;;;5098813;28;20031;-88
2023/08/15 07:20:51;;;;;;;8.10;3.25;;;40.40;40.90;;;;;;5082818;28;20054;-85
2023/08/15 07:23:17;;;;;;;10.27;4.32;;;40.40;40.90;;;;;;5125503;28;20031;-87
2023/08/15 07:25:43;;;;;;;13.38;4.55;;;40.50;41.20;;;;;;5126328;28;20038;-87
2023/08/15 07:28:10;;;;;;;7.75;3.28;;;40.80;41.00;;;;;;5096979;28;20024;-86
2023/08/15 07:30:36;;;;;;;10.80;3.20;;;41.30;40.40;;;;;;5113450;28;20020;-86
2023/08/15 07:33:05;;;;;;;6.32;3.22;;;41.80;40.10;;;;;;5119612;28;20076;-87
2023/08/15 07:35:31;;;;;;;7.80;3.55;;;41.80;39.80;;;;;;5115761;28;20024;-87
2023/08/15 07:37:57;;;;;;;7.72;3.40;;;41.50;40.00;;;;;;5084298;28;20022;-85
2023/08/15 07:40:23;;;;;;;8.20;3.67;;;41.20;40.00;;;;;;5089130;28;20043;-86
2023/08/15 07:42:49;;;;;;;9.30;4.30;;;41.10;40.90;;;;;;5112355;28;20036;-89
2023/08/15 07:45:22;;;;;;;9.02;3.58;;;41.30;40.50;;;;;;5093751;28;20480;-87
2023/08/15 07:47:51;;;;;;;9.23;3.35;;;41.80;40.20;;;;;;5086845;28;20032;-88
2023/08/15 07:50:26;;;;;;;5.40;3.40;;;42.10;39.60;;;;;;5105119;28;20097;-88
2023/08/15 07:52:53;;;;;;;8.27;3.45;;;42.10;39.10;;;;;;5099153;28;20553;-90
2023/08/15 07:55:20;;;;;;;6.28;3.45;;;41.20;39.80;;;;;;5084090;28;20077;-86
2023/08/15 07:57:47;;;;;;;5.25;3.05;;;40.90;40.40;;;;;;5119999;28;20055;-85
2023/08/15 08:00:14;;;;;;;7.25;4.03;;;40.30;40.90;;;;;;5099688;28;20445;-87
2023/08/15 08:02:41;;;;;;;5.43;3.42;;;37.90;42.20;;;;;;5101920;28;20035;-89
2023/08/15 08:05:09;;;;;;;7.75;3.65;;;37.30;43.60;;;;;;5099732;28;20388;-87
2023/08/15 08:07:36;;;;;;;7.13;4.40;;;;;;;;;;5085285;28;20142;-87
2023/08/15 08:10:02;;;;;;;7.18;3.78;;;;;;;;;;5119206;28;20408;-87
2023/08/15 08:12:29;;;;;;;7.57;4.43;;;;;;;;;;5117789;28;20024;-87
2023/08/15 08:14:55;;;;;;;5.30;4.55;;;;;;;;;;5114751;28;20098;-87
2023/08/15 08:17:21;;;;;;;9.77;4.63;;;35.50;45.70;;;;;;5080983;28;20097;-85
2023/08/15 08:19:47;;;;;;;7.13;4.68;;;33.90;49.20;;;;;;5087839;28;20377;-88
2023/08/15 08:22:13;;;;;;;11.50;5.33;;;33.60;50.70;;;;;;5110460;28;20103;-86
2023/08/15 08:24:39;;;;;;;7.20;6.30;;;33.80;50.70;;;;;;5122886;28;20500;-88
2023/08/15 08:27:05;;;;;;;5.80;4.40;;;34.10;50.30;;;;;;5121960;28;20719;-87
2023/08/15 08:29:31;;;;;;;10.97;4.33;;;33.80;49.90;;;;;;5124890;28;20125;-87
2023/08/15 08:31:57;;;;;;;6.20;3.97;;;34.50;50.20;;;;;;5127483;28;20024;-86
2023/08/15 08:34:23;;;;;;;6.85;3.72;;;35.70;48.60;;;;;;5127923;28;20023;-87
2023/08/15 08:36:49;;;;;;;6.40;3.75;;;36.70;46.90;;;;;;5115333;28;20028;-85
2023/08/15 08:39:15;;;;;;;9.45;4.10;;;36.90;45.70;;;;;;5098792;28;20615;-88
2023/08/15 08:41:41;;;;;;;6.37;4.43;;;36.30;46.40;;;;;;5104742;28;20047;-86
2023/08/15 08:44:10;;;;;;;6.68;4.65;;;36.10;46.80;;;;;;5095517;28;20304;-85
2023/08/15 08:46:36;;;;;;;10.45;5.50;;;35.50;47.20;;;;;;5108567;28;20031;-87
2023/08/15 08:49:04;;;;;;;7.97;4.18;;;34.60;49.40;;;;;;5096333;28;20039;-87
2023/08/15 08:51:32;;;;;;;6.13;3.90;;;33.70;49.50;;;;;;5111485;28;20024;-89
2023/08/15 08:53:58;;;;;;;8.57;4.20;;;33.90;50.10;;;;;;5100273;28;20028;-87
2023/08/15 08:56:25;;;;;;;8.73;4.17;;;34.70;49.10;;;;;;5101323;28;20508;-86
2023/08/15 08:59:10;;;;;;;4.85;4.10;;;34.90;48.60;;;;;;5104969;28;20298;-87
2023/08/15 09:01:38;;;;;;;7.20;4.35;;;35.00;49.40;;;;;;5086848;28;20063;-89
2023/08/15 09:04:04;;;;;;;8.68;4.20;;;35.90;48.40;;;;;;5103577;28;20091;-89
2023/08/15 09:06:30;;;;;;;8.20;4.03;;;35.00;48.20;;;;;;5114799;28;20120;-88
2023/08/15 09:08:58;;;;;;;15.77;5.05;;;34.60;49.40;;;;;;5077458;28;20076;-88
2023/08/15 09:11:35;;;;;;;12.95;5.32;;;35.60;49.30;;;;;;5090036;28;20058;-89
2023/08/15 09:14:06;;;;;;;13.07;4.05;;;37.50;47.20;;;;;;5090944;28;20579;-88
2023/08/15 09:16:32;;;;;;;11.20;7.50;;;39.10;44.80;;;;;;5100587;28;20031;-87
2023/08/15 09:19:06;;;;;;;7.00;3.75;;;40.30;42.60;;;;;;5098317;28;20054;-89
2023/08/15 09:21:34;;;;;;;6.50;4.10;;;40.80;41.50;;;;;;5094423;28;20099;-90
2023/08/15 09:24:00;;;;;;;7.13;3.63;;;40.80;41.30;;;;;;5081542;28;20108;-88
2023/08/15 09:26:26;;;;;;;;;;;40.90;40.80;;;;;;5082250;28;20050;-89
2023/08/15 09:28:52;;;;;;;9.70;3.95;;;40.00;42.30;;;;;;5104759;28;19994;-88
2023/08/15 09:31:18;;;;;;;6.90;4.32;;;38.60;42.80;;;;;;5105370;28;20360;-88
2023/08/15 09:33:44;;;;;;;;;;;38.10;43.90;;;;;;5095490;28;20036;-89
2023/08/15 09:36:10;;;;;;;7.00;4.22;;;38.20;44.40;;;;;;5106971;28;19971;-88
2023/08/15 09:38:37;;;;;;;4.80;3.47;;;38.20;43.40;;;;;;5104122;28;20113;-88
2023/08/15 09:41:04;;;;;;;6.38;3.92;;;37.90;43.80;;;;;;5100487;28;20012;-88
2023/08/15 09:43:31;;;;;;;6.35;3.65;;;37.90;43.70;;;;;;5101316;28;20475;-90
2023/08/15 09:46:00;;;;;;;5.30;3.90;;;37.70;44.40;;;;;;5102421;28;20075;-88
2023/08/15 09:48:30;;;;;;;5.90;3.75;;;37.80;44.10;;;;;;5088723;28;20046;-92
2023/08/15 09:50:57;;;;;;;8.20;4.32;;;38.30;44.30;;;;;;5104048;28;20050;-90
2023/08/15 09:53:24;;;;;;;9.43;4.00;;;39.00;43.60;;;;;;5107894;28;20020;-90
2023/08/15 09:55:50;;;;;;;6.72;4.10;;;39.80;42.70;;;;;;5096735;28;20024;-90
2023/08/15 09:58:17;;;;;;;6.55;4.47;;;39.70;41.40;;;;;;5097707;28;20035;-91
2023/08/15 10:00:43;;;;;;;;;;;39.40;42.10;;;;;;5083101;28;20029;-90
2023/08/15 10:03:29;;;;;;;6.03;3.70;;;39.10;42.60;;;;;;5078498;28;19915;-90
2023/08/15 10:05:57;;;;;;;4.68;3.33;;;39.20;42.50;;;;;;5093064;28;20035;-92
2023/08/15 10:08:23;;;;;;;4.07;3.58;;;38.90;41.30;;;;;;5098983;28;20028;-89
2023/08/15 10:10:52;;;;;;;4.85;3.70;;;37.50;42.90;;;;;;5122626;28;20023;-89
2023/08/15 10:13:38;;;;;;;4.97;3.72;;;36.10;44.90;;;;;;5098738;28;20020;-89
2023/08/15 10:16:06;;;;;;;4.95;3.75;;;34.80;46.00;;;;;;5097007;28;20111;-88
2023/08/15 10:18:33;;;;;;;6.65;3.78;;;;;;;;;;5122782;28;20024;-88
2023/08/15 10:20:59;;;;;;;4.65;3.88;;;;;;;;;;5101590;28;20023;-87
2023/08/15 10:23:37;;;;;;;5.25;4.75;;;;;;;;;;5121147;28;20106;-88
2023/08/15 10:26:03;;;;;;;7.28;4.88;;;;;;;;;;5097811;28;20032;-87
2023/08/15 10:28:30;;;;;;;6.57;4.30;;;;;;;;;;5082916;28;20020;-89
2023/08/15 10:30:57;;;;;;;7.18;3.80;;;;;;;;;;5121732;28;20028;-88
2023/08/15 10:33:24;;;;;;;3.97;3.10;;;;;;;;;;5108109;28;20024;-87
2023/08/15 10:35:56;;;;;;;6.43;4.20;;;33.40;49.10;;;;;;5106794;28;20048;-88
2023/08/15 10:38:35;;;;;;;6.05;3.97;;;30.90;52.90;;;;;;5102934;28;20162;-87
2023/08/15 10:41:13;;;;;;;4.85;3.75;;;30.10;54.70;;;;;;5100654;28;20019;-89
2023/08/15 10:43:44;;;;;;;8.65;5.65;;;29.70;56.10;;;;;;5099808;28;20024;-88
2023/08/15 10:46:10;;;;;;;9.55;6.68;;;29.60;56.90;;;;;;5108298;28;20024;-87
2023/08/15 10:48:49;;;;;;;6.35;4.60;;;29.50;57.20;;;;;;5109330;28;20032;-88
2023/08/15 10:51:30;;;;;;;8.80;5.20;;;29.40;57.50;;;;;;5095972;28;20028;-88
2023/08/15 10:53:58;;;;;;;8.45;5.15;;;29.30;57.50;;;;;;5126070;28;20032;-87
2023/08/15 10:56:28;;;;;;;8.80;4.55;;;29.20;58.00;;;;;;5107183;28;20031;-88
2023/08/15 10:58:55;;;;;;;7.40;4.05;;;28.90;58.60;;;;;;5127229;28;20026;-87
2023/08/15 11:01:22;;;;;;;5.25;4.53;;;28.60;58.80;;;;;;5119443;28;20028;-88
2023/08/15 11:03:50;;;;;;;11.13;4.35;;;28.20;59.40;;;;;;5099447;28;20027;-89
2023/08/15 11:06:17;;;;;;;6.90;3.97;;;27.90;59.40;;;;;;5129844;28;20013;-90
2023/08/15 11:08:47;;;;;;;8.35;4.85;;;27.80;59.90;;;;;;5113222;28;20039;-90
2023/08/15 11:11:13;;;;;;;6.05;4.70;;;27.80;60.10;;;;;;5112045;28;20024;-89
2023/08/15 11:13:42;;;;;;;4.90;3.72;;;27.60;61.20;;;;;;5124909;28;20024;-88
2023/08/15 11:16:08;;;;;;;6.10;4.63;;;27.40;60.90;;;;;;5130315;28;20055;-89
2023/08/15 11:18:43;;;;;;;5.82;3.65;;;27.40;61.60;;;;;;5102170;28;20476;-87
2023/08/15 11:21:11;;;;;;;7.57;6.35;;;27.30;61.30;;;;;;5122798;28;20024;-86
2023/08/15 11:23:38;;;;;;;7.75;3.80;;;27.30;60.90;;;;;;5101500;28;20031;-88
2023/08/15 11:26:09;;;;;;;7.70;3.55;;;27.20;59.00;;;;;;5118171;28;20038;-87
2023/08/15 11:28:36;;;;;;;8.55;3.90;;;27.10;58.80;;;;;;5091585;28;20114;-88
2023/08/15 11:31:08;;;;;;;5.32;3.45;;;27.10;58.90;;;;;;5089218;28;20092;-87
2023/08/15 11:33:34;;;;;;;7.15;3.88;;;27.10;59.70;;;;;;5132501;28;20032;-87
2023/08/15 11:36:08;;;;;;;7.18;4.32;;;27.10;60.20;;;;;;5104850;28;20084;-88
2023/08/15 11:38:35;;;;;;;7.00;4.65;;;27.20;61.10;;;;;;5107942;28;20031;-90
2023/08/15 11:41:02;;;;;;;;;;;27.50;60.60;;;;;;5102464;28;20385;-87
2023/08/15 11:43:31;;;;;;;4.40;3.88;;;27.80;59.80;;;;;;5113365;28;19910;-89
2023/08/15 11:46:06;;;;;;;4.50;4.10;;;27.90;60.40;;;;;;5086377;28;20039;-87
2023/08/15 11:48:37;;;;;;;8.23;4.40;;;27.90;59.60;;;;;;5113219;28;20019;-87
2023/08/15 11:51:05;;;;;;;5.20;3.90;;;27.80;59.80;;;;;;5119982;28;20027;-86
2023/08/15 11:53:31;;;;;;;5.85;3.78;;;27.60;59.80;;;;;;5088593;28;20024;-86
2023/08/15 11:55:57;;;;;;;4.88;3.42;;;27.50;60.00;;;;;;5087968;28;20114;-86
2023/08/15 11:58:31;;;;;;;5.07;2.92;;;27.20;59.10;;;;;;5080661;28;20169;-86
2023/08/15 12:01:02;;;;;;;5.82;3.47;;;27.00;58.80;;;;;;5079840;28;20040;-87
2023/08/15 12:03:30;;;;;;;5.43;3.03;;;26.90;58.90;;;;;;5084850;28;20024;-87
2023/08/15 12:05:58;;;;;;;3.47;2.90;;;26.80;59.00;;;;;;5124459;28;20041;-88
2023/08/15 12:08:28;;;;;;;5.95;4.13;;;26.60;58.70;;;;;;5096765;28;20059;-84
2023/08/15 12:10:56;;;;;;;4.72;3.40;;;26.60;58.20;;;;;;5099487;28;20055;-87
2023/08/15 12:13:31;;;;;;;5.22;3.42;;;26.50;58.10;;;;;;5096211;28;20547;-87
2023/08/15 12:15:58;;;;;;;4.82;2.80;;;26.50;59.20;;;;;;5097541;28;20040;-86
2023/08/15 12:18:24;;;;;;;5.72;2.72;;;26.40;58.60;;;;;;5121400;28;20041;-87
2023/08/15 12:20:50;;;;;;;8.13;3.60;;;26.40;58.80;;;;;;5103382;28;20075;-88
2023/08/15 12:23:18;;;;;;;7.55;4.68;;;26.40;58.20;;;;;;5099456;28;20028;-87
2023/08/15 12:25:44;;;;;;;6.43;2.78;;;;;;;;;;5096346;28;20046;-87
2023/08/15 12:28:11;;;;;;;8.65;2.50;;;;;;;;;;5132929;28;20034;-88
2023/08/15 12:30:37;;;;;;;5.20;2.50;;;;;;;;;;5109378;28;20016;-87
2023/08/15 12:33:05;;;;;;;4.10;2.35;;;;;;;;;;5106335;28;20054;-89
2023/08/15 12:35:32;;;;;;;5.97;2.75;;;;;;;;;;5085290;28;20020;-88
2023/08/15 12:37:58;;;;;;;4.47;2.58;;;;;;;;;;5085963;28;20105;-85
2023/08/15 12:40:26;;;;;;;4.78;3.03;;;;;;;;;;5097936;28;20020;-89
2023/08/15 12:42:52;;;;;;;6.90;3.97;;;;;;;;;;5113645;28;20035;-88
2023/08/15 12:45:19;;;;;;;3.63;2.92;;;;;;;;;;5117338;28;20071;-87
2023/08/15 12:47:45;;;;;;;7.20;3.28;;;;;;;;;;5094170;28;20524;-87
2023/08/15 12:50:11;;;;;;;9.02;3.30;;;;;;;;;;5117156;28;20024;-87
2023/08/15 12:52:37;;;;;;;4.03;3.38;;;;;;;;;;5107423;28;20075;-88
2023/08/15 12:55:04;;;;;;;5.20;3.03;;;;;;;;;;5095680;28;20449;-88